createdAt,value
2022-08-25T00:03:13.639Z,64.69
2022-08-25T00:08:16.601Z,64.77
2022-08-25T00:13:19.712Z,64.49
2022-08-25T00:18:22.776Z,64.98
2022-08-25T00:23:25.930Z,65.27
2022-08-25T00:28:30.488Z,64.32
2022-08-25T00:33:34.089Z,64.93
2022-08-25T00:38:38.529Z,65.47
2022-08-25T00:43:41.442Z,66.29
2022-08-25T00:48:48.024Z,66.56
2022-08-25T00:53:51.764Z,66.18
2022-08-25T00:58:54.760Z,65.51
2022-08-25T01:03:57.962Z,65.87
2022-08-25T01:09:01.074Z,65.93
2022-08-25T01:14:06.844Z,65.74
2022-08-25T01:19:14.376Z,66.93
2022-08-25T01:24:53.817Z,67.24
2022-08-25T01:29:58.151Z,68.69
2022-08-25T01:35:01.166Z,68.82
2022-08-25T01:40:06.474Z,68.73
2022-08-25T01:45:10.565Z,67.83
2022-08-25T01:50:13.766Z,66.61
2022-08-25T01:55:16.985Z,66.11
2022-08-25T02:00:23.466Z,66.90
2022-08-25T02:05:26.878Z,66.31
2022-08-25T02:10:33.019Z,65.82
2022-08-25T02:15:42.213Z,65.53
2022-08-25T02:20:45.901Z,65.40
2022-08-25T02:25:49.155Z,65.45
2022-08-25T02:30:58.526Z,65.38
2022-08-25T02:36:05.888Z,65.45
2022-08-25T02:41:20.610Z,65.50
2022-08-25T02:46:25.128Z,66.60
2022-08-25T02:51:30.394Z,65.75
2022-08-25T02:56:34.064Z,65.09
2022-08-25T03:01:37.172Z,64.93
2022-08-25T03:06:41.055Z,64.34
2022-08-25T03:11:44.159Z,63.88
2022-08-25T03:16:47.252Z,63.33
2022-08-25T03:21:52.685Z,63.32
2022-08-25T03:26:56.299Z,62.74
2022-08-25T03:32:00.448Z,62.50
2022-08-25T03:37:03.848Z,62.56
2022-08-25T03:42:08.115Z,62.64
2022-08-25T03:47:11.453Z,62.74
2022-08-25T03:52:14.458Z,62.80
2022-08-25T03:57:17.362Z,62.80
2022-08-25T04:02:20.845Z,63.26
2022-08-25T04:07:23.989Z,63.80
2022-08-25T04:12:27.209Z,64.01
2022-08-25T04:17:30.616Z,63.68
2022-08-25T04:22:33.726Z,63.95
2022-08-25T04:27:40.019Z,63.31
2022-08-25T04:32:43.017Z,62.51
2022-08-25T04:37:48.264Z,61.87
2022-08-25T04:42:51.280Z,60.92
2022-08-25T04:47:55.314Z,59.47
2022-08-25T04:52:58.318Z,62.73
2022-08-25T04:58:01.263Z,61.42
2022-08-25T05:03:05.284Z,60.53
2022-08-25T05:08:08.259Z,59.78
2022-08-25T05:13:11.369Z,60.18
2022-08-25T05:18:14.375Z,59.29
2022-08-25T05:23:17.586Z,64.53
2022-08-25T05:28:21.416Z,63.74
2022-08-25T05:33:24.623Z,62.97
2022-08-25T05:38:28.696Z,62.46
2022-08-25T05:43:32.459Z,62.15
2022-08-25T05:48:36.221Z,62.09
2022-08-25T05:53:41.773Z,61.97
2022-08-25T05:58:45.335Z,61.99
2022-08-25T06:03:49.483Z,62.72
2022-08-25T06:08:52.529Z,62.31
2022-08-25T06:13:56.726Z,62.39
2022-08-25T06:19:01.310Z,63.29
2022-08-25T06:24:05.039Z,66.71
2022-08-25T06:29:08.240Z,69.32
2022-08-25T06:34:12.390Z,71.20
2022-08-25T06:39:15.488Z,72.62
2022-08-25T06:44:18.694Z,72.25
2022-08-25T06:49:22.276Z,71.02
2022-08-25T06:54:25.470Z,70.24
2022-08-25T06:59:32.216Z,68.82
2022-08-25T07:04:37.292Z,67.09
2022-08-25T07:09:40.799Z,65.45
2022-08-25T07:14:58.122Z,64.79
2022-08-25T07:20:07.742Z,64.74
2022-08-25T07:25:12.073Z,64.64
2022-08-25T07:30:15.449Z,64.18
2022-08-25T07:35:19.689Z,63.71
2022-08-25T07:40:30.457Z,63.53
2022-08-25T07:45:37.842Z,62.94
2022-08-25T07:50:52.196Z,62.66
2022-08-25T07:55:55.292Z,62.45
2022-08-25T08:00:58.374Z,62.31
2022-08-25T08:06:02.200Z,61.15
2022-08-25T08:11:06.357Z,60.31
2022-08-25T08:16:13.997Z,60.23
2022-08-25T08:21:20.930Z,63.47
2022-08-25T08:26:36.376Z,61.65
2022-08-25T08:31:48.802Z,60.81
2022-08-25T08:36:52.607Z,59.87
2022-08-25T08:42:17.342Z,63.14
2022-08-25T08:47:40.528Z,62.44
2022-08-25T08:52:50.255Z,61.09
2022-08-25T08:57:55.934Z,60.70
2022-08-25T09:03:04.782Z,60.22
2022-08-25T09:08:12.584Z,60.46
2022-08-25T09:13:36.077Z,63.43
2022-08-25T09:18:51.327Z,62.42
2022-08-25T09:24:25.302Z,61.89
2022-08-25T09:29:42.751Z,61.88
2022-08-25T09:34:49.758Z,61.31
2022-08-25T09:39:54.206Z,60.05
2022-08-25T09:45:00.992Z,59.53
2022-08-25T09:50:05.489Z,63.60
2022-08-25T09:55:08.635Z,63.20
2022-08-25T10:00:33.781Z,61.14
2022-08-25T10:05:49.566Z,61.32
2022-08-25T10:11:06.515Z,62.95
2022-08-25T10:16:24.227Z,60.71
2022-08-25T10:21:28.180Z,62.20
2022-08-25T10:26:44.097Z,61.51
2022-08-25T10:31:59.618Z,61.25
2022-08-25T10:37:21.229Z,60.93
2022-08-25T10:42:30.180Z,61.82
2022-08-25T10:47:45.425Z,61.05
2022-08-25T10:53:10.392Z,59.85
2022-08-25T10:58:48.218Z,62.65
2022-08-25T11:04:10.519Z,61.55
2022-08-25T11:09:20.443Z,59.85
2022-08-25T11:14:47.107Z,62.44
2022-08-25T11:19:55.846Z,59.99
2022-08-25T11:25:18.618Z,61.28
2022-08-25T11:30:22.722Z,61.49
2022-08-25T11:35:40.910Z,59.22
2022-08-25T11:41:11.277Z,61.37
2022-08-25T11:46:22.703Z,61.68
2022-08-25T11:51:42.153Z,59.57
2022-08-25T11:57:00.110Z,62.66
2022-08-25T12:02:03.322Z,61.53
2022-08-25T12:07:06.230Z,60.75
2022-08-25T12:12:31.729Z,60.12
2022-08-25T12:17:39.884Z,61.00
2022-08-25T12:22:51.801Z,62.32
2022-08-25T12:28:30.649Z,59.63
2022-08-25T12:34:17.615Z,62.11
2022-08-25T12:39:33.885Z,60.11
2022-08-25T12:44:47.870Z,60.06
2022-08-25T12:49:53.046Z,62.14
2022-08-25T12:55:03.483Z,59.94
2022-08-25T13:00:23.716Z,60.43
2022-08-25T13:05:43.928Z,62.16
2022-08-25T13:10:58.507Z,60.07
2022-08-25T13:16:09.075Z,59.74
2022-08-25T13:21:35.140Z,61.83
2022-08-25T13:26:47.117Z,59.37
2022-08-25T13:31:57.974Z,60.62
2022-08-25T13:37:30.542Z,62.38
2022-08-25T13:42:34.488Z,59.60
2022-08-25T13:47:45.234Z,60.21
2022-08-25T13:52:54.513Z,62.25
2022-08-25T13:57:59.669Z,59.27
2022-08-25T14:03:12.684Z,60.69
2022-08-25T14:09:04.054Z,62.20
2022-08-25T14:14:12.592Z,59.12
2022-08-25T14:19:21.708Z,61.64
2022-08-25T14:24:24.847Z,61.94
2022-08-25T14:29:30.833Z,59.17
2022-08-25T14:34:39.682Z,60.79
2022-08-25T14:39:45.131Z,62.14
2022-08-25T14:44:50.903Z,59.39
2022-08-25T14:49:54.015Z,61.08
2022-08-25T14:55:01.723Z,61.78
2022-08-25T15:00:09.102Z,59.06
2022-08-25T15:05:13.781Z,60.05
2022-08-25T15:10:17.328Z,61.36
2022-08-25T15:15:20.623Z,61.97
2022-08-25T15:20:24.545Z,61.91
2022-08-25T15:25:29.399Z,62.08
2022-08-25T15:30:33.057Z,61.72
2022-08-25T15:35:36.326Z,58.44
2022-08-25T15:40:39.970Z,59.39
2022-08-25T15:45:46.456Z,60.86
2022-08-25T15:50:58.587Z,61.67
2022-08-25T15:56:05.701Z,62.05
2022-08-25T16:01:22.293Z,62.04
2022-08-25T16:06:28.057Z,59.52
2022-08-25T16:11:35.889Z,61.03
2022-08-25T16:16:42.312Z,62.30
2022-08-25T16:21:47.238Z,59.91
2022-08-25T16:26:51.930Z,61.23
2022-08-25T16:31:55.343Z,62.29
2022-08-25T16:37:00.225Z,60.03
2022-08-25T16:42:03.346Z,60.41
2022-08-25T16:47:08.929Z,62.78
2022-08-25T16:52:31.471Z,60.73
2022-08-25T16:57:36.751Z,59.43
2022-08-25T17:02:40.527Z,61.22
2022-08-25T17:08:06.543Z,63.09
2022-08-25T17:13:12.182Z,61.09
2022-08-25T17:18:15.681Z,59.92
2022-08-25T17:23:21.126Z,62.68
2022-08-25T17:28:24.666Z,62.24
2022-08-25T17:33:28.389Z,61.80
2022-08-25T17:38:33.468Z,61.97
2022-08-25T17:43:41.378Z,62.36
2022-08-25T17:48:44.483Z,62.27
2022-08-25T17:53:53.122Z,62.50
2022-08-25T17:58:57.274Z,63.23
2022-08-25T18:04:01.285Z,63.05
2022-08-25T18:09:06.023Z,62.69
2022-08-25T18:14:10.786Z,62.36
2022-08-25T18:19:14.693Z,62.00
2022-08-25T18:24:17.707Z,62.16
2022-08-25T18:29:22.350Z,62.08
2022-08-25T18:34:25.665Z,61.80
2022-08-25T18:39:47.660Z,61.48
2022-08-25T18:44:51.896Z,60.83
2022-08-25T18:49:55.064Z,61.47
2022-08-25T18:54:59.606Z,61.97
2022-08-25T19:00:05.919Z,62.11
2022-08-25T19:05:10.573Z,62.53
2022-08-25T19:10:13.846Z,62.78
2022-08-25T19:15:17.386Z,63.20
2022-08-25T19:20:21.509Z,62.76
2022-08-25T19:25:25.286Z,63.24
2022-08-25T19:30:36.213Z,62.85
2022-08-25T19:35:47.104Z,62.42
2022-08-25T19:40:52.462Z,61.78
2022-08-25T19:45:55.519Z,61.41
2022-08-25T19:51:00.427Z,61.82
2022-08-25T19:56:07.427Z,61.87
2022-08-25T20:01:11.286Z,62.36
2022-08-25T20:06:19.909Z,62.36
2022-08-25T20:11:23.612Z,62.80
2022-08-25T20:16:28.871Z,62.46
2022-08-25T20:21:33.559Z,61.81
2022-08-25T20:26:40.861Z,62.68
2022-08-25T20:31:46.057Z,62.35
2022-08-25T20:36:49.900Z,63.40
2022-08-25T20:41:53.634Z,63.07
2022-08-25T20:46:58.586Z,63.58
2022-08-25T20:52:02.309Z,63.66
2022-08-25T20:57:08.148Z,63.61
2022-08-25T21:02:11.542Z,63.50
2022-08-25T21:07:15.630Z,63.20
2022-08-25T21:12:19.062Z,62.89
2022-08-25T21:17:22.059Z,62.89
2022-08-25T21:22:25.571Z,63.16
2022-08-25T21:27:28.507Z,63.38
2022-08-25T21:32:31.583Z,63.55
2022-08-25T21:37:34.590Z,63.52
2022-08-25T21:42:37.494Z,63.53
2022-08-25T21:47:42.828Z,63.28
2022-08-25T21:52:46.107Z,64.42
2022-08-25T21:57:49.830Z,65.21
2022-08-25T22:02:54.596Z,65.45
2022-08-25T22:07:57.952Z,65.30
2022-08-25T22:13:04.203Z,65.08
2022-08-25T22:18:07.445Z,64.79
2022-08-25T22:23:10.453Z,64.30
2022-08-25T22:28:23.702Z,63.89
2022-08-25T22:33:26.706Z,64.42
2022-08-25T22:38:29.728Z,63.76
2022-08-25T22:43:33.444Z,63.54
2022-08-25T22:48:37.165Z,63.54
2022-08-25T22:53:42.167Z,63.19
2022-08-25T22:58:52.037Z,63.43
2022-08-25T23:03:55.188Z,63.11
2022-08-25T23:08:58.789Z,63.36
2022-08-25T23:14:02.534Z,63.69
2022-08-25T23:19:06.003Z,63.92
2022-08-25T23:24:12.557Z,63.26
2022-08-25T23:29:18.593Z,63.17
2022-08-25T23:34:22.754Z,63.87
2022-08-25T23:39:26.181Z,65.05
2022-08-25T23:44:29.517Z,65.13
2022-08-25T23:49:33.092Z,64.95
2022-08-25T23:54:36.480Z,64.73
2022-08-25T23:59:39.525Z,64.89
